• Join FlightAware (Why Join?)
  • Login
  • US Flag 
02:16PM EDT


 

Airport Tracker/Info


-or-


 

Live Flight TrackerFlight Track Log ✈ SKW6345 ✈ 13-Jun-2013 ✈ KLAX - KSAN

Flight Track Log - Related Links

Times and Time Zones

All times are in EDT time to prevent confusion due to time zone crossing. See the SKW6345 flight status page for this flight to view local times or setup timezone preferences in your user account.

Time Position Orientation Groundspeed Altitude Reporting Facility
EDT Latitude Longitude Course Direction KTS MPH feet Rate Location/Type
08:42PM 33.8319 -118.4778 143° Southeast 194 223 4,700  Level Los Angeles Center
08:43PM 33.7783 -118.4647 169° South 198 228 6,000 1,140 Climbing Los Angeles Center
08:44PM 33.7297 -118.4367 154° Southeast 200 230 7,100 1,200 Climbing Los Angeles Center
08:45PM 33.6775 -118.3817 139° Southeast 209 241 8,500 960 Climbing Los Angeles Center
08:46PM 33.7578 -118.2189 140° Southeast  Level Estimated
08:46PM 33.6311 -118.3328 139° Southeast 221 254 9,100  Level Los Angeles Center
08:47PM 33.7255 -118.1897 143° Southeast  Level FlightAware Approximate
08:47PM 33.5939 -118.2633 123° Southeast 240 276 9,100  Level Los Angeles Center
08:48PM 33.5567 -118.1928 122° Southeast 250 288 9,000 -60 Descending Los Angeles Center
08:49PM 33.5392 -118.1122 105° East 255 293 9,000  Level Los Angeles Center
08:50PM 33.5097 -118.0172 110° East 269 310 9,000  Level Los Angeles Center
08:51PM 33.4703 -117.9500 125° Southeast 255 293 9,000  Level Los Angeles Center
08:52PM 33.4283 -117.8831 127° Southeast 253 291 9,000  Level Los Angeles Center
08:53PM 33.4000 -117.8333 124° Southeast 250 288 9,000  Level Southern California TRACON
08:54PM 33.3500 -117.7667 132° Southeast 250 288 9,000  Level Southern California TRACON
08:54PM 33.3444 -117.7511 113° Southeast 250 288 9,000  Level Los Angeles Center
08:55PM 33.3028 -117.6842 127° Southeast 251 289 9,000  Level Los Angeles Center
08:56PM 33.2525 -117.6047 127° Southeast 251 289 9,000  Level Los Angeles Center
08:57PM 33.2167 -117.5667 138° Southeast 250 288 9,000  Level Southern California TRACON
08:58PM 33.1667 -117.5333 151° Southeast 252 290 9,000  Level Southern California TRACON
08:59PM 33.1000 -117.4833 148° Southeast 251 289 9,000  Level Southern California TRACON
08:59PM 33.0792 -117.4656 144° Southeast 251 289 9,000 -180 Level Los Angeles Center
09:00PM 33.0214 -117.4183 146° Southeast 252 290 8,800 -480 Descending Los Angeles Center
09:01PM 32.9594 -117.3689 146° Southeast 262 302 8,100 -780 Descending Los Angeles Center
09:02PM 32.9167 -117.3333 145° Southeast 271 312 7,700 -780 Descending Southern California TRACON
09:03PM 32.8833 -117.2667 121° Southeast 276 318 7,000 -780 Descending Southern California TRACON
09:03PM 32.8506 -117.2203 130° Southeast 279 321 6,500 -900 Descending Los Angeles Center
09:04PM 32.8131 -117.1503 123° Southeast 259 298 5,500 -780 Descending Los Angeles Center
09:05PM 32.7794 -117.0892 123° Southeast 228 262 4,900 -540 Descending Los Angeles Center
09:06PM 32.7464 -117.0297 123° Southeast 221 254 4,500 -540 Descending Los Angeles Center
09:07PM 32.7167 -117.0167 160° South 223 257 4,200 -1,200 Descending Southern California TRACON
09:08PM 32.7000 -117.0667 248° West 185 213 3,100 -1,260 Descending Southern California TRACON
09:09PM 32.7167 -117.1167 292° West 133 153 1,700 -1,200 Descending Southern California TRACON
09:10PM 32.7239 -117.1508 284° West 141 162 900 -1,020 Descending Los Angeles Center